Time;durP1;ratioP1;P1;durP2;ratioP2;P2;SDS_P1;SDS_P2;PMS_P1;PMS_P2;Temp;Humidity;BMP_temperature;BMP_pressure;BME280_temperature;BME280_humidity;BME280_pressure;Samples;Min_cycle;Max_cycle;Signal;HPM_P1;HPM_P2
2023/06/16 00:03:49;;;;;;;;;;;;;;;20.10;99.70;99650.00;10366533;28;19917;-71
2023/06/16 00:08:54;;;;;;;;;;;;;;;20.08;99.80;99648.63;10366013;28;19968;-71
2023/06/16 00:13:55;;;;;;;;;;;;;;;20.06;99.52;99643.47;10364930;28;19970;-71
2023/06/16 00:18:59;;;;;;;;;;;;;;;20.03;99.37;99658.28;10372534;28;20054;-71
2023/06/16 00:24:00;;;;;;;;;;;;;;;19.95;99.52;99653.31;10371929;28;19917;-71
2023/06/16 00:29:05;;;;;;;;;;;;;;;19.92;99.59;99655.66;10372071;28;19986;-72
2023/06/16 00:34:06;;;;;;;;;;;;;;;19.85;99.89;99650.44;10371873;28;20403;-71
2023/06/16 00:39:06;;;;;;;;;;;;;;;19.81;99.95;99657.41;10372557;28;19966;-72
2023/06/16 00:44:07;;;;;;;;;;;;;;;19.78;100.00;99660.59;10373003;28;19928;-71
2023/06/16 00:49:07;;;;;;;;;;;;;;;19.73;100.00;99663.19;10379424;28;20019;-68
2023/06/16 00:54:10;;;;;;;;;;;;;;;19.67;100.00;99659.59;10391652;28;20054;-68
2023/06/16 00:59:11;;;;;;;;;;;;;;;19.65;100.00;99661.69;10371911;28;19917;-68
2023/06/16 01:04:12;;;;;;;;;;;;;;;19.55;100.00;99669.59;10370932;28;19918;-68
2023/06/16 01:09:15;;;;;;;;;;;;;;;19.50;100.00;99659.53;10411885;28;19960;-68
2023/06/16 01:14:21;;;;;;;;;;;;;;;19.48;100.00;99664.38;10411400;28;19917;-68
2023/06/16 01:19:37;;;;;;;;;;;;;;;19.43;100.00;99658.88;10411311;28;20337;-68
2023/06/16 01:24:42;;;;;;;;;;;;;;;19.41;100.00;99652.09;10412104;28;19950;-68
2023/06/16 01:29:43;;;;;;;;;;;;;;;19.37;100.00;99655.28;10411410;28;19917;-68
2023/06/16 01:34:45;;;;;;;;;;;;;;;19.36;100.00;99653.66;10411409;27;20287;-68
2023/06/16 01:39:46;;;;;;;;;;;;;;;19.38;100.00;99653.41;10410711;28;19923;-68
2023/06/16 01:44:47;;;;;;;;;;;;;;;19.42;100.00;99656.44;10410890;28;19921;-68
2023/06/16 01:49:49;;;;;;;;;;;;;;;19.48;100.00;99666.25;10410303;28;19925;-68
2023/06/16 01:54:49;;;;;;;;;;;;;;;19.54;100.00;99657.19;10410390;28;19924;-69
2023/06/16 01:59:54;;;;;;;;;;;;;;;19.57;100.00;99656.72;10411614;27;20269;-68
2023/06/16 02:04:55;;;;;;;;;;;;;;;19.64;100.00;99661.94;10393839;28;19947;-68
2023/06/16 02:09:57;;;;;;;;;;;;;;;19.70;100.00;99669.88;10384639;28;20404;-68
2023/06/16 02:14:58;;;;;;;;;;;;;;;19.82;100.00;99669.81;10369629;28;19921;-68
2023/06/16 02:19:59;;;;;;;;;;;;;;;19.94;100.00;99675.91;10371302;28;20391;-68
2023/06/16 02:25:00;;;;;;;;;;;;;;;20.05;100.00;99676.91;10382189;28;19964;-68
2023/06/16 02:30:01;;;;;;;;;;;;;;;20.18;100.00;99673.84;10409249;28;19916;-68
2023/06/16 02:35:04;;;;;;;;;;;;;;;20.37;100.00;99673.56;10402459;28;20297;-68
2023/06/16 02:40:05;;;;;;;;;;;;;;;20.50;100.00;99673.22;10398741;28;20330;-68
2023/06/16 02:45:06;;;;;;;;;;;;;;;20.61;100.00;99677.75;10409056;28;20375;-68
2023/06/16 02:50:08;;;;;;;;;;;;;;;20.75;100.00;99683.56;10408951;28;19956;-68
2023/06/16 02:55:09;;;;;;;;;;;;;;;20.91;100.00;99684.56;10408979;28;19960;-68
2023/06/16 03:00:11;;;;;;;;;;;;;;;21.05;100.00;99688.50;10408675;28;19975;-68
2023/06/16 03:05:11;;;;;;;;;;;;;;;21.17;100.00;99686.47;10408038;28;19939;-68
2023/06/16 03:10:12;;;;;;;;;;;;;;;21.34;100.00;99693.69;10407888;28;20016;-68
2023/06/16 03:15:12;;;;;;;;;;;;;;;21.52;100.00;99695.25;10408167;28;19936;-68
2023/06/16 03:20:13;;;;;;;;;;;;;;;21.66;99.08;99696.47;10408327;28;19917;-68
2023/06/16 03:25:15;;;;;;;;;;;;;;;21.75;98.83;99684.09;10407893;28;20388;-68
2023/06/16 03:30:16;;;;;;;;;;;;;;;21.95;98.77;99678.03;10407384;28;20269;-68
2023/06/16 03:35:17;;;;;;;;;;;;;;;22.20;97.94;99690.16;10407637;28;20015;-68
2023/06/16 03:40:18;;;;;;;;;;;;;;;22.40;97.51;99690.25;10393393;28;19963;-68
2023/06/16 03:45:18;;;;;;;;;;;;;;;22.56;96.19;99694.69;10366615;28;19928;-69
2023/06/16 03:50:19;;;;;;;;;;;;;;;22.67;95.47;99700.13;10369325;28;19922;-69
2023/06/16 03:55:20;;;;;;;;;;;;;;;22.71;94.88;99701.25;10373115;28;19921;-69
2023/06/16 04:00:20;;;;;;;;;;;;;;;22.81;94.08;99697.78;10372974;28;19917;-68
2023/06/16 04:05:23;;;;;;;;;;;;;;;22.88;93.83;99701.84;10374161;28;21409;-69
2023/06/16 04:10:24;;;;;;;;;;;;;;;23.01;93.00;99701.41;10383336;28;19921;-69
2023/06/16 04:15:25;;;;;;;;;;;;;;;23.18;92.27;99700.38;10372577;28;19919;-68
2023/06/16 04:20:25;;;;;;;;;;;;;;;23.34;91.73;99701.22;10373095;28;19924;-69
2023/06/16 04:25:26;;;;;;;;;;;;;;;23.40;91.39;99708.28;10387706;28;20015;-69
2023/06/16 04:30:30;;;;;;;;;;;;;;;23.67;91.04;99713.47;10384847;28;19964;-68
2023/06/16 04:40:28;;;;;;;11.60;7.10;;;;;;;23.92;87.46;99709.97;10533564;27;20925;-66
2023/06/16 04:45:29;;;;;;;11.15;7.10;;;;;;;23.96;86.25;99656.81;10486212;28;82555;-66
2023/06/16 04:50:30;;;;;;;10.05;6.45;;;;;;;24.78;83.95;99721.81;10518105;28;20407;-66
2023/06/16 04:55:31;;;;;;;10.85;6.13;;;;;;;25.03;82.55;99708.09;10531736;28;20530;-66
2023/06/16 05:00:32;;;;;;;7.00;6.13;;;;;;;25.09;81.67;99708.09;10532126;28;20067;-66
2023/06/16 05:05:33;;;;;;;8.85;6.28;;;;;;;25.31;80.57;99703.13;10531039;28;20048;-66
2023/06/16 05:10:34;;;;;;;9.55;7.20;;;;;;;24.72;80.34;99652.31;10531373;28;20041;-66
2023/06/16 05:15:35;;;;;;;7.68;6.88;;;;;;;24.55;80.55;99649.91;10529423;28;20050;-67
2023/06/16 05:20:35;;;;;;;9.85;7.90;;;;;;;24.76;80.96;99700.34;10534640;28;20047;-66
2023/06/16 05:25:36;;;;;;;12.05;7.88;;;;;;;24.74;80.08;99699.00;10530125;28;20044;-66
2023/06/16 05:30:37;;;;;;;17.92;8.60;;;;;;;24.80;81.34;99708.78;10519258;28;20040;-66
2023/06/16 05:35:38;;;;;;;10.18;9.07;;;;;;;24.27;81.91;99641.28;10503016;28;20037;-66
2023/06/16 05:40:39;;;;;;;11.25;9.10;;;;;;;24.44;82.09;99676.31;10514157;28;20036;-66
2023/06/16 05:45:40;;;;;;;14.15;8.93;;;;;;;24.41;82.36;99682.25;10519993;28;20130;-66
2023/06/16 05:50:40;;;;;;;15.10;8.68;;;;;;;24.31;82.40;99682.25;10487885;28;20049;-68
2023/06/16 05:55:41;;;;;;;12.52;9.63;;;;;;;24.39;82.24;99703.41;10446979;28;20044;-67
2023/06/16 06:00:42;;;;;;;11.32;9.60;;;;;;;24.01;82.57;99639.72;10452423;28;20037;-67
2023/06/16 06:05:43;;;;;;;12.77;10.32;;;;;;;24.30;82.43;99697.75;10458049;28;20049;-68
2023/06/16 06:10:44;;;;;;;23.30;12.55;;;;;;;24.22;83.79;99678.47;10475794;28;20049;-67
2023/06/16 06:15:45;;;;;;;15.60;11.80;;;;;;;24.30;82.78;99683.34;10468772;28;20044;-67
2023/06/16 06:20:46;;;;;;;17.10;12.05;;;;;;;24.50;81.60;99696.09;10485729;28;20542;-66
2023/06/16 06:25:47;;;;;;;14.65;12.35;;;;;;;24.62;81.92;99695.78;10451905;28;20108;-67
2023/06/16 06:30:48;;;;;;;16.88;12.43;;;;;;;24.53;81.18;99687.38;10458824;28;20044;-67
2023/06/16 06:35:49;;;;;;;14.13;12.35;;;;;;;24.37;81.67;99673.00;10458415;28;20110;-67
2023/06/16 06:40:50;;;;;;;15.05;12.93;;;;;;;24.35;81.30;99669.75;10458376;28;20041;-67
2023/06/16 06:45:50;;;;;;;19.42;13.82;;;;;;;24.57;81.41;99686.56;10457535;28;20036;-67
2023/06/16 06:50:51;;;;;;;19.48;12.60;;;;;;;24.74;80.56;99699.00;10457676;28;20072;-67
2023/06/16 06:55:52;;;;;;;15.48;12.30;;;;;;;24.81;79.25;99689.47;10457170;28;20642;-67
2023/06/16 07:00:53;;;;;;;16.35;12.65;;;;;;;25.04;78.03;99689.91;10450969;28;20049;-67
2023/06/16 07:05:54;;;;;;;20.25;13.80;;;;;;;25.05;78.08;99640.72;10431339;28;20049;-67
2023/06/16 07:10:55;;;;;;;16.00;12.27;;;;;;;25.45;77.60;99681.53;10417282;28;20615;-68
2023/06/16 07:15:56;;;;;;;14.40;11.77;;;;;;;24.72;75.61;99560.75;10432893;28;20071;-67
2023/06/16 07:20:57;;;;;;;12.32;10.75;;;;;;;25.71;74.64;99674.81;10430493;28;20369;-67
2023/06/16 07:25:58;;;;;;;11.50;10.27;;;;;;;25.93;74.13;99663.47;10429961;28;20139;-67
2023/06/16 07:30:59;;;;;;;14.10;10.38;;;;;;;26.26;73.31;99671.88;10451209;28;20075;-67
2023/06/16 07:36:00;;;;;;;14.65;9.95;;;;;;;26.62;71.62;99663.31;10439436;28;20052;-67
2023/06/16 07:41:02;;;;;;;15.90;9.65;;;;;;;26.53;70.60;99619.56;10435303;28;20033;-67
2023/06/16 07:46:03;;;;;;;16.77;7.90;;;;;;;26.80;70.47;99642.66;10431440;28;20045;-67
2023/06/16 07:51:04;;;;;;;12.55;7.88;;;;;;;26.91;69.99;99625.09;10429208;28;20568;-67
2023/06/16 07:56:05;;;;;;;11.13;7.65;;;;;;;27.03;68.89;99638.28;10430558;28;20045;-68
2023/06/16 08:01:06;;;;;;;9.90;7.22;;;;;;;27.20;68.82;99616.78;10429055;28;20045;-68
2023/06/16 08:06:06;;;;;;;10.15;7.05;;;;;;;27.60;67.94;99644.53;10430627;28;20046;-68
2023/06/16 08:11:07;;;;;;;13.52;6.70;;;;;;;27.54;67.11;99604.78;10427779;28;20041;-67
2023/06/16 08:16:08;;;;;;;13.60;7.68;;;;;;;27.76;66.73;99629.53;10429147;28;20194;-68
2023/06/16 08:21:09;;;;;;;9.13;6.07;;;;;;;27.72;65.35;99582.09;10428201;28;20041;-67
2023/06/16 08:26:11;;;;;;;11.95;6.57;;;;;;;28.17;65.12;99617.88;10430182;28;20565;-68
2023/06/16 08:31:11;;;;;;;11.55;6.63;;;;;;;28.09;65.00;99609.56;10428247;28;20040;-67
2023/06/16 08:36:12;;;;;;;11.57;6.78;;;;;;;27.95;64.76;99604.91;10435459;28;20638;-68
2023/06/16 08:41:16;;;;;;;10.20;6.88;;;;;;;27.86;64.20;99609.44;10427741;28;20041;-67
2023/06/16 08:46:16;;;;;;;10.68;5.85;;;;;;;27.60;63.94;99603.59;10443502;28;20037;-68
2023/06/16 08:51:21;;;;;;;7.10;5.90;;;;;;;27.65;63.82;99602.72;10428233;28;20033;-68
2023/06/16 08:56:22;;;;;;;11.40;5.72;;;;;;;27.72;63.41;99590.28;10438817;28;20036;-66
2023/06/16 09:01:24;;;;;;;16.77;6.15;;;;;;;27.95;64.55;99588.53;10453167;28;20049;-68
2023/06/16 09:06:25;;;;;;;12.07;6.03;;;;;;;27.60;63.56;99564.59;10453303;28;20118;-67
2023/06/16 09:11:26;;;;;;;24.80;7.38;;;;;;;26.83;65.01;99465.78;10453297;28;20144;-67
2023/06/16 09:16:28;;;;;;;13.48;7.43;;;;;;;27.40;64.87;99565.75;10453028;28;20131;-67
2023/06/16 09:21:29;;;;;;;10.07;6.30;;;;;;;27.05;64.58;99514.22;10453103;28;20037;-67
2023/06/16 09:26:38;;;;;;;14.07;6.68;;;;;;;26.94;63.67;99511.94;10458320;28;20110;-67
2023/06/16 09:31:39;;;;;;;11.63;6.78;;;;;;;26.93;65.25;99575.75;10458481;28;20059;-68
2023/06/16 09:36:40;;;;;;;11.60;6.90;;;;;;;26.10;69.03;99564.25;10453061;28;20056;-67
2023/06/16 09:41:43;;;;;;;9.77;6.85;;;;;;;25.66;72.69;99567.94;10451588;28;20140;-67
2023/06/16 09:46:47;;;;;;;12.82;7.50;;;;;;;25.70;73.34;99563.56;10446986;28;20049;-68
2023/06/16 09:51:56;;;;;;;12.30;7.32;;;;;;;25.95;75.23;99549.72;10451375;28;20042;-67
2023/06/16 09:56:58;;;;;;;10.68;6.38;;;;;;;26.33;70.48;99540.84;10436854;28;20037;-68
2023/06/16 10:02:00;;;;;;;24.03;5.93;;;;;;;27.23;68.63;99533.59;10434550;28;20038;-68
2023/06/16 10:07:07;;;;;;;13.05;5.82;;;;;;;27.91;64.26;99529.38;10434824;28;20072;-68
2023/06/16 10:12:12;;;;;;;11.65;5.63;;;;;;;28.03;64.96;99529.72;10439552;28;20687;-67
2023/06/16 10:17:16;;;;;;;9.10;4.57;;;;;;;28.20;62.38;99496.31;10434457;28;20096;-68
2023/06/16 10:22:17;;;;;;;5.57;4.28;;;;;;;28.77;60.16;99506.81;10437375;28;20052;-68
2023/06/16 10:27:19;;;;;;;6.22;3.95;;;;;;;28.94;57.69;99482.34;10434558;28;20053;-68
2023/06/16 10:32:20;;;;;;;8.15;4.00;;;;;;;28.97;57.40;99457.13;10422317;28;20041;-68
2023/06/16 10:37:22;;;;;;;8.60;4.22;;;;;;;28.85;58.16;99492.41;10415724;28;20049;-68
2023/06/16 10:42:23;;;;;;;14.17;4.50;;;;;;;29.03;57.44;99488.72;10416079;28;20500;-68
2023/06/16 10:47:27;;;;;;;8.32;4.15;;;;;;;29.15;56.56;99490.06;10414950;28;20037;-68
2023/06/16 10:52:28;;;;;;;7.68;4.30;;;;;;;28.90;56.98;99484.09;10415369;28;20065;-68
2023/06/16 10:57:28;;;;;;;7.07;4.32;;;;;;;29.03;56.65;99466.84;10415472;28;20065;-66
2023/06/16 11:02:33;;;;;;;6.95;4.00;;;;;;;28.80;54.23;99394.94;10452329;28;20033;-68
2023/06/16 11:07:46;;;;;;;4.55;3.58;;;;;;;29.53;51.22;99483.03;10457207;28;20493;-68
2023/06/16 11:12:47;;;;;;;5.75;3.33;;;;;;;29.76;52.17;99486.53;10475245;28;20123;-67
2023/06/16 11:17:48;;;;;;;25.73;4.60;;;;;;;30.16;52.85;99480.22;10491988;28;20378;-68
2023/06/16 11:22:50;;;;;;;5.95;3.33;;;;;;;30.37;50.00;99483.19;10457140;28;20041;-67
2023/06/16 11:27:51;;;;;;;8.07;4.10;;;;;;;30.00;49.88;99390.31;10464548;28;20522;-69
2023/06/16 11:32:52;;;;;;;7.60;3.83;;;;;;;30.50;50.59;99476.72;10444272;28;20041;-68
2023/06/16 11:37:56;;;;;;;5.57;3.70;;;;;;;30.26;50.90;99468.97;10442571;28;20633;-67
2023/06/16 11:43:05;;;;;;;9.93;3.97;;;;;;;30.27;50.15;99462.34;10455508;28;20044;-66
2023/06/16 11:48:08;;;;;;;6.65;3.45;;;;;;;29.79;50.17;99386.53;10449657;28;20080;-67
2023/06/16 11:53:14;;;;;;;6.60;3.35;;;;;;;30.14;49.63;99447.66;10434929;28;20496;-68
2023/06/16 11:58:15;;;;;;;8.45;3.67;;;;;;;30.09;49.82;99447.00;10433187;28;20037;-68
2023/06/16 12:03:17;;;;;;;5.85;3.10;;;;;;;30.18;50.24;99443.13;10431535;28;20038;-68
2023/06/16 12:08:51;;;;;;;7.97;3.60;;;;;;;30.45;48.26;99453.03;10427896;28;20413;-67
2023/06/16 12:13:53;;;;;;;6.13;2.97;;;;;;;30.18;47.83;99425.91;10429880;28;20408;-68
2023/06/16 12:18:53;;;;;;;7.30;3.60;;;;;;;30.31;48.89;99435.94;10446825;28;20051;-66
2023/06/16 12:23:59;;;;;;;9.38;3.67;;;;;;;30.33;49.80;99430.13;10452972;28;20136;-66
2023/06/16 12:29:07;;;;;;;8.95;3.53;;;;;;;30.50;47.92;99435.63;10476507;28;20044;-66
2023/06/16 12:34:08;;;;;;;11.07;3.42;;;;;;;30.59;48.52;99427.41;10469915;28;20518;-67
2023/06/16 12:39:20;;;;;;;3.85;3.03;;;;;;;30.44;47.46;99415.00;10467948;28;20053;-66
2023/06/16 12:44:21;;;;;;;5.63;3.57;;;;;;;30.29;48.76;99405.31;10432771;28;20048;-66
2023/06/16 12:49:21;;;;;;;6.05;3.10;;;;;;;30.29;48.64;99419.00;10432948;28;20048;-67
2023/06/16 12:54:22;;;;;;;6.15;3.08;;;;;;;29.71;48.26;99341.63;10437683;28;20053;-66
2023/06/16 12:59:23;;;;;;;4.68;2.85;;;;;;;29.83;48.30;99376.59;10424995;28;20052;-67
2023/06/16 13:04:25;;;;;;;4.65;2.83;;;;;;;30.08;48.76;99379.66;10448516;28;20156;-66
2023/06/16 13:09:26;;;;;;;5.87;3.13;;;;;;;30.35;48.54;99409.50;10473557;28;20090;-65
2023/06/16 13:14:28;;;;;;;7.53;2.97;;;;;;;30.26;48.63;99395.00;10489665;28;20083;-71
2023/06/16 13:19:29;;;;;;;8.27;3.05;;;;;;;29.40;48.79;99313.50;10460829;28;20036;-71
2023/06/16 13:24:30;;;;;;;4.30;2.88;;;;;;;29.29;49.14;99375.94;10479694;28;20036;-71
2023/06/16 13:29:31;;;;;;;5.13;3.15;;;;;;;28.73;50.10;99290.72;10499349;28;20511;-71
2023/06/16 13:34:32;;;;;;;5.10;3.20;;;;;;;29.17;50.81;99365.59;10498474;28;20044;-71
2023/06/16 13:39:33;;;;;;;6.07;2.60;;;;;;;29.03;50.46;99373.88;10498902;28;20057;-72
2023/06/16 13:44:33;;;;;;;7.45;3.00;;;;;;;28.75;50.69;99358.72;10496931;28;20041;-68
2023/06/16 13:49:34;;;;;;;7.47;3.20;;;;;;;28.69;50.84;99369.00;10484745;28;20048;-68
2023/06/16 13:54:35;;;;;;;32.72;5.18;;;;;;;28.09;51.08;99239.09;10499518;28;20086;-69
2023/06/16 13:59:36;;;;;;;15.70;3.83;;;;;;;29.08;51.10;99299.13;10432873;28;20061;-69
2023/06/16 14:04:36;;;;;;;8.70;3.20;;;;;;;29.85;50.45;99351.59;10426965;28;20045;-69
2023/06/16 14:09:37;;;;;;;6.60;3.08;;;;;;;29.67;48.73;99288.63;10461068;28;20044;-67
2023/06/16 14:14:38;;;;;;;4.70;3.08;;;;;;;30.33;48.41;99347.94;10467395;28;20029;-67
2023/06/16 14:19:39;;;;;;;13.50;3.30;;;;;;;30.44;48.47;99336.31;10444370;28;20484;-67
2023/06/16 14:24:39;;;;;;;11.10;3.40;;;;;;;30.31;48.01;99306.38;10436925;28;20063;-68
2023/06/16 14:29:40;;;;;;;8.48;2.97;;;;;;;30.64;47.99;99334.03;10447780;28;20095;-67
2023/06/16 14:34:41;;;;;;;6.13;2.75;;;;;;;30.83;47.27;99352.88;10433126;28;20040;-68
2023/06/16 14:39:42;;;;;;;57.25;5.32;;;;;;;30.76;47.16;99331.41;10429121;28;20059;-68
2023/06/16 14:44:42;;;;;;;9.18;2.70;;;;;;;30.54;46.35;99301.47;10468857;28;20084;-67
2023/06/16 14:49:44;;;;;;;8.50;2.50;;;;;;;30.19;46.32;99263.97;10458275;28;20040;-66
2023/06/16 14:54:45;;;;;;;4.00;2.00;;;;;;;29.70;46.32;99270.75;10472709;28;20556;-67
2023/06/16 14:59:45;;;;;;;2.92;1.88;;;;;;;29.83;46.76;99338.25;10499486;28;20089;-66
2023/06/16 15:04:46;;;;;;;7.53;2.78;;;;;;;29.33;48.77;99335.88;10485842;28;20111;-66
2023/06/16 15:09:47;;;;;;;5.60;2.60;;;;;;;28.63;49.24;99282.81;10469567;28;20051;-67
2023/06/16 15:14:48;;;;;;;5.68;2.70;;;;;;;28.81;50.37;99341.09;10483756;28;20410;-67
2023/06/16 15:19:49;;;;;;;6.97;3.40;;;;;;;28.60;51.07;99352.56;10490296;28;20179;-67
2023/06/16 15:24:49;;;;;;;3.33;2.33;;;;;;;28.56;51.30;99361.66;10456152;28;20037;-67
2023/06/16 15:29:50;;;;;;;3.50;2.53;;;;;;;28.63;50.72;99362.06;10455681;28;20068;-67
2023/06/16 15:34:51;;;;;;;16.50;2.72;;;;;;;28.46;51.36;99307.31;10456985;28;20037;-67
2023/06/16 15:40:11;;;;;;;6.05;2.30;;;;;;;28.83;51.76;99388.84;10480447;28;20056;-66
2023/06/16 15:45:11;;;;;;;12.13;3.35;;;;;;;28.65;52.57;99389.84;10497239;28;20038;-67
2023/06/16 15:50:31;;;;;;;8.07;3.53;;;;;;;28.58;52.96;99395.75;10490506;28;20193;-68
2023/06/16 15:55:32;;;;;;;8.48;3.60;;;;;;;28.23;53.45;99392.72;10434683;28;20404;-67
2023/06/16 16:00:33;;;;;;;10.65;4.50;;;;;;;28.04;54.23;99378.44;10453861;28;20053;-67
2023/06/16 16:05:34;;;;;;;16.55;4.90;;;;;;;28.04;55.52;99377.63;10450887;28;20074;-66
2023/06/16 16:10:35;;;;;;;16.27;4.78;;;;;;;27.77;56.65;99376.53;10454020;28;20047;-67
2023/06/16 16:15:36;;;;;;;12.35;4.00;;;;;;;27.59;57.78;99372.03;10453044;28;20045;-68
2023/06/16 16:20:39;;;;;;;9.10;3.95;;;;;;;27.18;58.85;99354.53;10438723;28;20038;-67
2023/06/16 16:25:39;;;;;;;;;;;;;;;27.24;58.75;99377.06;10435893;28;20087;-68
2023/06/16 16:30:40;;;;;;;8.27;3.95;;;;;;;26.68;60.77;99359.75;10428368;28;20028;-68
2023/06/16 16:35:41;;;;;;;10.50;3.95;;;;;;;26.39;63.13;99376.31;10422099;28;20045;-68
2023/06/16 16:40:42;;;;;;;9.13;4.25;;;;;;;26.11;63.90;99378.06;10421543;28;20043;-68
2023/06/16 16:45:43;;;;;;;7.88;3.72;;;;;;;25.78;63.72;99368.97;10421174;28;20501;-67
2023/06/16 16:50:44;;;;;;;9.32;3.22;;;;;;;25.65;63.97;99376.75;10421108;28;20037;-68
2023/06/16 16:55:45;;;;;;;7.18;2.95;;;;;;;25.65;63.21;99392.28;10421265;28;20041;-69
2023/06/16 17:00:45;;;;;;;6.28;3.08;;;;;;;25.41;64.36;99370.53;10432465;28;20489;-68
2023/06/16 17:05:46;;;;;;;5.30;3.22;;;;;;;25.52;64.39;99396.50;10419651;28;20037;-68
2023/06/16 17:10:47;;;;;;;5.88;3.38;;;;;;;24.83;65.24;99308.91;10421190;28;20104;-67
2023/06/16 17:15:48;;;;;;;16.10;4.68;;;;;;;24.75;66.45;99333.97;10439136;28;20484;-68
2023/06/16 17:20:48;;;;;;;5.82;3.80;;;;;;;24.84;68.10;99359.41;10428741;28;20053;-67
2023/06/16 17:25:49;;;;;;;5.70;3.83;;;;;;;24.46;69.26;99323.09;10427198;28;20037;-67
2023/06/16 17:30:50;;;;;;;13.40;4.13;;;;;;;24.79;70.40;99392.84;10428666;28;20045;-67
2023/06/16 17:35:53;;;;;;;9.77;3.97;;;;;;;24.61;71.67;99398.97;10427729;28;20554;-67
2023/06/16 17:40:57;;;;;;;6.97;4.43;;;;;;;24.52;71.93;99398.78;10428755;28;20136;-66
2023/06/16 17:45:58;;;;;;;13.90;3.80;;;;;;;24.47;71.79;99389.84;10432344;28;20543;-67
2023/06/16 17:51:00;;;;;;;15.00;3.92;;;;;;;24.58;71.55;99413.94;10442955;28;20071;-68
2023/06/16 17:56:03;;;;;;;6.38;3.63;;;;;;;24.63;70.72;99409.56;10432750;28;20044;-68
2023/06/16 18:01:04;;;;;;;6.53;4.05;;;;;;;24.52;71.17;99420.50;10415979;28;20398;-67
2023/06/16 18:06:05;;;;;;;6.55;3.88;;;;;;;24.55;71.09;99446.28;10434263;28;20033;-67
2023/06/16 18:11:24;;;;;;;8.18;3.85;;;;;;;24.43;72.17;99449.34;10474323;28;20128;-67
2023/06/16 18:16:25;;;;;;;6.60;4.28;;;;;;;24.41;73.15;99443.38;10454952;28;20451;-69
2023/06/16 18:21:26;;;;;;;9.35;4.10;;;;;;;24.30;73.70;99433.66;10445831;28;20037;-70
2023/06/16 18:26:27;;;;;;;6.93;4.68;;;;;;;24.32;74.02;99453.16;10437994;28;20037;-71
2023/06/16 18:31:27;;;;;;;7.05;3.95;;;;;;;24.41;75.34;99466.97;10435602;28;20040;-71
2023/06/16 18:36:28;;;;;;;6.03;4.30;;;;;;;23.69;76.14;99337.97;10452409;28;20052;-71
2023/06/16 18:41:29;;;;;;;7.82;4.07;;;;;;;24.18;77.08;99436.72;10450822;28;20484;-70
2023/06/16 18:46:30;;;;;;;5.30;4.10;;;;;;;24.08;77.74;99432.16;10450306;28;20127;-71
2023/06/16 18:51:33;;;;;;;7.07;4.38;;;;;;;23.66;78.27;99381.88;10437165;28;20072;-72
2023/06/16 18:56:33;;;;;;;9.03;4.57;;;;;;;23.92;79.07;99427.88;10457869;28;20128;-70
2023/06/16 19:01:34;;;;;;;14.20;5.97;;;;;;;23.87;80.01;99419.75;10442873;28;20071;-70
2023/06/16 19:06:36;;;;;;;20.73;6.05;;;;;;;23.63;79.89;99403.28;10442789;28;20503;-70
2023/06/16 19:11:37;;;;;;;13.23;5.30;;;;;;;23.58;80.89;99414.97;10434821;28;20594;-70
2023/06/16 19:16:38;;;;;;;7.00;4.55;;;;;;;23.53;80.86;99442.09;10432252;28;20043;-70
2023/06/16 19:21:39;;;;;;;6.85;4.20;;;;;;;23.45;81.29;99434.50;10444619;28;20037;-70
2023/06/16 19:26:40;;;;;;;10.02;4.70;;;;;;;22.74;80.80;99343.34;10430942;28;20049;-70
2023/06/16 19:31:40;;;;;;;13.98;4.97;;;;;;;23.06;81.30;99416.16;10430272;28;20043;-70
2023/06/16 19:37:00;;;;;;;7.43;3.90;;;;;;;23.31;81.89;99447.84;10444939;28;20053;-70
2023/06/16 19:42:00;;;;;;;6.03;3.80;;;;;;;22.72;79.88;99375.28;10434699;28;20043;-72
2023/06/16 19:47:01;;;;;;;8.85;3.85;;;;;;;23.04;79.00;99439.22;10443560;28;20048;-70
2023/06/16 19:52:02;;;;;;;9.35;4.13;;;;;;;22.70;79.71;99390.97;10444102;28;20037;-70
2023/06/16 19:57:03;;;;;;;7.53;2.95;;;;;;;22.94;79.06;99434.56;10431423;28;20489;-70
2023/06/16 20:02:06;;;;;;;6.28;3.25;;;;;;;22.85;79.75;99438.91;10439976;28;20029;-71
2023/06/16 20:07:10;;;;;;;6.95;3.10;;;;;;;22.08;79.73;99341.41;10431576;28;20091;-70
2023/06/16 20:12:11;;;;;;;11.75;3.38;;;;;;;22.31;80.87;99405.81;10430957;28;20040;-70
2023/06/16 20:17:12;;;;;;;4.57;3.20;;;;;;;22.25;82.11;99425.84;10431838;28;20040;-70
2023/06/16 20:22:13;;;;;;;4.55;2.80;;;;;;;21.70;82.96;99365.09;10431700;28;20033;-70
2023/06/16 20:27:13;;;;;;;6.07;3.65;;;;;;;21.70;83.42;99386.72;10428442;28;20404;-70
2023/06/16 20:32:14;;;;;;;8.30;3.10;;;;;;;21.72;84.07;99411.59;10431442;28;20044;-70
2023/06/16 20:37:17;;;;;;;5.03;3.25;;;;;;;21.58;85.14;99396.94;10432838;28;20044;-70
2023/06/16 20:42:19;;;;;;;5.22;2.90;;;;;;;21.06;85.25;99327.47;10439351;28;20045;-70
2023/06/16 20:47:19;;;;;;;6.10;3.50;;;;;;;21.40;86.37;99390.91;10431790;28;20131;-70
2023/06/16 20:52:20;;;;;;;3.83;2.50;;;;;;;21.08;86.13;99336.94;10438255;28;20136;-69
2023/06/16 20:57:22;;;;;;;4.93;2.70;;;;;;;21.57;85.80;99415.03;10411597;28;20488;-69
2023/06/16 21:02:23;;;;;;;4.30;2.90;;;;;;;21.58;85.87;99413.16;10418731;28;20044;-70
2023/06/16 21:07:25;;;;;;;9.35;3.47;;;;;;;21.10;86.08;99339.41;10457384;28;20045;-70
2023/06/16 21:12:26;;;;;;;4.43;2.88;;;;;;;21.04;86.06;99324.25;10454303;28;20090;-69
2023/06/16 21:17:26;;;;;;;11.70;4.22;;;;;;;21.52;86.96;99414.22;10468726;28;20098;-70
2023/06/16 21:22:27;;;;;;;5.13;3.63;;;;;;;21.28;87.06;99375.94;10471150;28;20385;-69
2023/06/16 21:27:29;;;;;;;6.25;3.20;;;;;;;21.29;86.98;99389.19;10461757;28;20048;-70
2023/06/16 21:32:30;;;;;;;7.32;3.47;;;;;;;21.24;87.34;99383.78;10495480;28;20473;-70
2023/06/16 21:37:31;;;;;;;4.60;2.95;;;;;;;21.19;87.03;99405.34;10500780;28;20094;-69
2023/06/16 21:42:32;;;;;;;4.55;2.90;;;;;;;21.15;87.41;99396.16;10502401;28;20098;-70
2023/06/16 21:47:34;;;;;;;4.25;3.10;;;;;;;21.04;87.27;99397.16;10502702;28;20075;-70
2023/06/16 21:52:35;;;;;;;6.35;3.40;;;;;;;21.08;87.81;99409.84;10469135;28;20033;-71
2023/06/16 21:57:36;;;;;;;5.47;2.95;;;;;;;20.70;88.27;99363.16;10460445;28;20076;-70
2023/06/16 22:02:37;;;;;;;5.55;3.35;;;;;;;20.73;88.39;99389.63;10459491;28;20083;-70
2023/06/16 22:07:39;;;;;;;5.68;3.38;;;;;;;20.86;88.47;99415.38;10460531;28;20037;-69
2023/06/16 22:12:41;;;;;;;6.28;3.53;;;;;;;20.81;88.42;99418.03;10459278;28;20044;-70
2023/06/16 22:17:42;;;;;;;4.53;3.70;;;;;;;20.65;88.57;99376.63;10460364;28;20566;-70
2023/06/16 22:22:42;;;;;;;7.07;3.90;;;;;;;20.89;88.52;99401.34;10459734;28;20047;-70
2023/06/16 22:27:43;;;;;;;8.63;4.20;;;;;;;20.98;89.27;99405.19;10458933;28;20055;-70
2023/06/16 22:32:44;;;;;;;4.90;4.03;;;;;;;20.38;89.64;99325.38;10456641;28;20033;-70
2023/06/16 22:37:45;;;;;;;8.07;4.20;;;;;;;20.84;90.14;99385.13;10459114;28;20063;-70
2023/06/16 22:42:46;;;;;;;9.88;4.60;;;;;;;20.85;90.97;99378.66;10457931;28;20045;-71
2023/06/16 22:47:48;;;;;;;5.72;4.57;;;;;;;20.96;91.42;99393.84;10457787;28;20045;-70
2023/06/16 22:52:51;;;;;;;6.43;4.40;;;;;;;21.01;91.03;99384.97;10457663;28;20048;-70
2023/06/16 22:57:51;;;;;;;6.60;4.70;;;;;;;21.01;91.61;99379.56;10458326;28;20116;-70
2023/06/16 23:02:52;;;;;;;7.28;4.53;;;;;;;20.92;91.76;99365.75;10457648;28;20127;-70
2023/06/16 23:07:53;;;;;;;5.20;4.35;;;;;;;20.66;91.73;99321.56;10457593;28;20048;-70
2023/06/16 23:12:54;;;;;;;5.90;4.47;;;;;;;21.05;91.32;99383.38;10458048;28;20098;-70
2023/06/16 23:17:55;;;;;;;7.47;5.13;;;;;;;20.91;91.94;99377.63;10455620;28;20044;-70
2023/06/16 23:23:02;;;;;;;9.85;5.15;;;;;;;20.95;93.93;99397.63;10456336;28;20033;-70
2023/06/16 23:28:05;;;;;;;9.10;5.20;;;;;;;20.90;93.09;99392.19;10457144;28;20052;-70
2023/06/16 23:33:06;;;;;;;8.50;5.45;;;;;;;20.93;92.57;99380.06;10457131;28;20446;-70
2023/06/16 23:38:07;;;;;;;6.90;5.88;;;;;;;21.02;92.93;99383.09;10454757;28;20098;-70
2023/06/16 23:43:08;;;;;;;7.47;5.38;;;;;;;20.92;93.08;99364.94;10454737;28;20093;-70
2023/06/16 23:48:10;;;;;;;8.60;5.78;;;;;;;20.98;93.42;99380.91;10455462;28;20037;-70